Climatologie pour Saint-Brevin les Pins
Jour • Résumé pour mai 13, 2017 Système :  Métrique    Anglais   Mixte
« - 1 jour
+ 1 jour »
Jour Semaine Mois Année Personnalisé
  Maximum : Minimum : Moyenne :
Température sous abri : 17.7 °C 12.6 °C 15 °C
Point de rosée : 14.4 °C 10.8 °C 12.6 °C
Humidité : 94 % 75 % 86 %
Vitesse du vent : 22.5 km/h 0.0 km/h 9 km/h
Rafale : 29.0 km/h - -
Direction :- - WSW
Pression : 1015.8 hPa 1006.3 hPa -
Précipitations : 0.0 mm    
Historical Graphs
 
 
Tableau de données pour mai 13, 2017
Heure Tempé Pt rosée Pression Vent Vitesse Rafale Humidité Taux pluie (/hr) Soleil
00:00 14.1 °C 12.9 °C 1006.3 hPa South 6.4 km/h 14.5 km/h 93 % 0.0 mm 0 W/m2
00:05 14.1 °C 13.0 °C 1006.3 hPa SW 3.2 km/h 12.9 km/h 93 % 0.0 mm 0 W/m2
00:10 14.1 °C 13.0 °C 1006.3 hPa SSW 6.4 km/h 12.9 km/h 93 % 0.0 mm 0 W/m2
00:15 14.1 °C 13.0 °C 1006.3 hPa SW 3.2 km/h 14.5 km/h 93 % 0.0 mm 0 W/m2
00:20 14.1 °C 13.0 °C 1006.3 hPa West 3.2 km/h 14.5 km/h 93 % 0.0 mm 0 W/m2
00:25 14.1 °C 13.0 °C 1006.3 hPa WSW 6.4 km/h 11.3 km/h 93 % 0.0 mm 0 W/m2
00:30 14.1 °C 12.9 °C 1006.3 hPa West 6.4 km/h 16.1 km/h 93 % 0.0 mm 0 W/m2
00:35 14.1 °C 12.9 °C 1006.3 hPa WSW 8.0 km/h 16.1 km/h 93 % 0.0 mm 0 W/m2
00:40 14.1 °C 12.9 °C 1006.7 hPa WSW 8.0 km/h 14.5 km/h 93 % 0.0 mm 0 W/m2
00:45 14.0 °C 13.0 °C 1006.7 hPa SW 8.0 km/h 16.1 km/h 94 % 0.0 mm 0 W/m2
00:50 14.0 °C 13.0 °C 1006.7 hPa WSW 9.7 km/h 16.1 km/h 94 % 0.0 mm 0 W/m2
00:55 14.0 °C 13.0 °C 1006.7 hPa WSW 9.7 km/h 17.7 km/h 94 % 0.0 mm 0 W/m2
01:00 14.0 °C 12.9 °C 1006.7 hPa West 8.0 km/h 19.3 km/h 93 % 0.0 mm 0 W/m2
01:05 13.9 °C 12.8 °C 1006.7 hPa WSW 6.4 km/h 19.3 km/h 93 % 0.0 mm 0 W/m2
01:10 13.7 °C 12.6 °C 1006.7 hPa West 6.4 km/h 20.9 km/h 93 % 0.0 mm 0 W/m2
01:15 13.6 °C 12.5 °C 1006.7 hPa WSW 9.7 km/h 24.1 km/h 93 % 0.0 mm 0 W/m2
01:20 13.6 °C 12.4 °C 1007.0 hPa West 12.9 km/h 24.1 km/h 93 % 0.0 mm 0 W/m2
01:25 13.6 °C 12.5 °C 1007.0 hPa West 9.7 km/h 22.5 km/h 93 % 0.0 mm 0 W/m2
01:30 13.7 °C 12.6 °C 1007.0 hPa West 6.4 km/h 19.3 km/h 93 % 0.0 mm 0 W/m2
01:35 13.6 °C 12.3 °C 1007.0 hPa WSW 9.7 km/h 24.1 km/h 92 % 0.0 mm 0 W/m2
01:40 13.6 °C 12.3 °C 1007.0 hPa West 4.8 km/h 24.1 km/h 92 % 0.0 mm 0 W/m2
01:45 13.6 °C 12.3 °C 1007.0 hPa West 4.8 km/h 19.3 km/h 92 % 0.0 mm 0 W/m2
01:50 13.6 °C 12.3 °C 1007.0 hPa WNW 3.2 km/h 17.7 km/h 92 % 0.0 mm 0 W/m2
01:55 13.4 °C 12.2 °C 1007.0 hPa West 9.7 km/h 17.7 km/h 92 % 0.0 mm 0 W/m2
02:00 13.4 °C 12.0 °C 1007.0 hPa West 4.8 km/h 19.3 km/h 91 % 0.0 mm 0 W/m2
02:05 13.4 °C 12.0 °C 1007.0 hPa West 1.6 km/h 19.3 km/h 91 % 0.0 mm 0 W/m2
02:10 13.5 °C 12.1 °C 1007.3 hPa West 9.7 km/h 14.5 km/h 91 % 0.0 mm 0 W/m2
02:15 13.5 °C 12.1 °C 1007.0 hPa West 3.2 km/h 17.7 km/h 91 % 0.0 mm 0 W/m2
02:20 13.5 °C 12.1 °C 1007.3 hPa WSW 3.2 km/h 17.7 km/h 91 % 0.0 mm 0 W/m2
02:25 13.6 °C 12.1 °C 1007.3 hPa WNW 8.0 km/h 17.7 km/h 91 % 0.0 mm 0 W/m2
02:30 13.6 °C 12.1 °C 1007.3 hPa West 6.4 km/h 17.7 km/h 91 % 0.0 mm 0 W/m2
02:35 13.6 °C 12.3 °C 1007.3 hPa WNW 4.8 km/h 19.3 km/h 92 % 0.0 mm 0 W/m2
02:40 13.6 °C 12.3 °C 1007.3 hPa West 9.7 km/h 19.3 km/h 92 % 0.0 mm 0 W/m2
02:45 13.4 °C 11.9 °C 1007.3 hPa WNW 11.3 km/h 19.3 km/h 91 % 0.0 mm 0 W/m2
02:50 13.3 °C 11.9 °C 1007.3 hPa WSW 12.9 km/h 19.3 km/h 91 % 0.0 mm 0 W/m2
02:55 13.4 °C 11.8 °C 1007.3 hPa WSW 6.4 km/h 19.3 km/h 90 % 0.0 mm 0 W/m2
03:00 13.4 °C 11.8 °C 1007.3 hPa West 8.0 km/h 19.3 km/h 90 % 0.0 mm 0 W/m2
03:05 13.4 °C 11.8 °C 1007.3 hPa West 11.3 km/h 17.7 km/h 90 % 0.0 mm 0 W/m2
03:10 13.2 °C 11.6 °C 1007.3 hPa West 6.4 km/h 27.4 km/h 90 % 0.0 mm 0 W/m2
03:15 13.2 °C 11.6 °C 1007.3 hPa West 4.8 km/h 27.4 km/h 90 % 0.0 mm 0 W/m2
03:20 13.2 °C 11.6 °C 1007.3 hPa West 4.8 km/h 14.5 km/h 90 % 0.0 mm 0 W/m2
03:25 13.2 °C 11.6 °C 1007.3 hPa West 6.4 km/h 17.7 km/h 90 % 0.0 mm 0 W/m2
03:30 13.1 °C 11.5 °C 1007.3 hPa WNW 8.0 km/h 17.7 km/h 90 % 0.0 mm 0 W/m2
03:35 13.1 °C 11.5 °C 1007.3 hPa WSW 8.0 km/h 17.7 km/h 90 % 0.0 mm 0 W/m2
03:40 13.1 °C 11.5 °C 1007.3 hPa West 4.8 km/h 19.3 km/h 90 % 0.0 mm 0 W/m2
03:45 12.9 °C 11.5 °C 1007.3 hPa WNW 17.7 km/h 19.3 km/h 91 % 0.0 mm 0 W/m2
03:50 12.8 °C 11.2 °C 1007.3 hPa WSW 4.8 km/h 20.9 km/h 90 % 0.0 mm 0 W/m2
03:55 12.8 °C 11.2 °C 1007.7 hPa WNW 6.4 km/h 20.9 km/h 90 % 0.0 mm 0 W/m2
04:00 12.8 °C 11.2 °C 1007.7 hPa West 9.7 km/h 20.9 km/h 90 % 0.0 mm 0 W/m2
04:05 12.8 °C 11.3 °C 1007.7 hPa West 14.5 km/h 20.9 km/h 91 % 0.0 mm 0 W/m2
04:10 12.8 °C 11.4 °C 1007.7 hPa West 3.2 km/h 20.9 km/h 91 % 0.0 mm 0 W/m2
04:15 12.9 °C 11.5 °C 1007.7 hPa West 6.4 km/h 19.3 km/h 91 % 0.0 mm 0 W/m2
04:20 12.9 °C 11.5 °C 1007.7 hPa WNW 6.4 km/h 20.9 km/h 91 % 0.0 mm 0 W/m2
04:25 12.9 °C 11.3 °C 1008.0 hPa WSW 11.3 km/h 20.9 km/h 90 % 0.0 mm 0 W/m2
04:30 12.8 °C 11.4 °C 1008.0 hPa West 8.0 km/h 17.7 km/h 91 % 0.0 mm 0 W/m2
04:35 12.8 °C 11.3 °C 1008.0 hPa West 9.7 km/h 17.7 km/h 91 % 0.0 mm 0 W/m2
04:40 12.8 °C 11.2 °C 1008.0 hPa WNW 8.0 km/h 17.7 km/h 90 % 0.0 mm 0 W/m2
04:45 12.7 °C 11.1 °C 1008.0 hPa WNW 11.3 km/h 19.3 km/h 90 % 0.0 mm 0 W/m2
04:50 12.8 °C 11.2 °C 1008.0 hPa WSW 19.3 km/h 20.9 km/h 90 % 0.0 mm 0 W/m2
04:55 12.8 °C 11.2 °C 1008.0 hPa WNW 9.7 km/h 20.9 km/h 90 % 0.0 mm 0 W/m2
05:00 12.8 °C 11.2 °C 1008.0 hPa SW 3.2 km/h 19.3 km/h 90 % 0.0 mm 0 W/m2
05:05 12.8 °C 11.2 °C 1008.4 hPa WNW 9.7 km/h 20.9 km/h 90 % 0.0 mm 0 W/m2
05:10 12.9 °C 11.3 °C 1008.4 hPa West 6.4 km/h 24.1 km/h 90 % 0.0 mm 0 W/m2
05:20 13.1 °C 11.3 °C 1008.4 hPa WSW 9.7 km/h 25.7 km/h 89 % 0.0 mm 0 W/m2
05:25 12.9 °C 11.2 °C 1008.4 hPa West 12.9 km/h 19.3 km/h 89 % 0.0 mm 0 W/m2
05:30 12.9 °C 11.1 °C 1008.4 hPa West 9.7 km/h 17.7 km/h 89 % 0.0 mm 0 W/m2
05:35 12.8 °C 11.1 °C 1008.4 hPa WNW 4.8 km/h 17.7 km/h 89 % 0.0 mm 0 W/m2
05:40 12.8 °C 11.2 °C 1008.4 hPa SW 9.7 km/h 17.7 km/h 90 % 0.0 mm 0 W/m2
05:45 12.8 °C 11.2 °C 1008.4 hPa West 3.2 km/h 17.7 km/h 90 % 0.0 mm 0 W/m2
05:50 12.7 °C 11.1 °C 1008.4 hPa WNW 9.7 km/h 20.9 km/h 90 % 0.0 mm 0 W/m2
05:55 12.6 °C 10.8 °C 1008.4 hPa West 1.6 km/h 20.9 km/h 89 % 0.0 mm 0 W/m2
06:00 12.7 °C 10.9 °C 1008.7 hPa West 6.4 km/h 16.1 km/h 89 % 0.0 mm 0 W/m2
06:05 12.6 °C 10.8 °C 1008.4 hPa West 3.2 km/h 14.5 km/h 89 % 0.0 mm 0 W/m2
06:10 12.7 °C 11.1 °C 1008.7 hPa West 3.2 km/h 14.5 km/h 90 % 0.0 mm 0 W/m2
06:15 12.8 °C 11.2 °C 1008.7 hPa NNW 4.8 km/h 14.5 km/h 90 % 0.0 mm 0 W/m2
06:25 12.8 °C 11.4 °C 1008.7 hPa West 6.4 km/h 14.5 km/h 91 % 0.0 mm 0 W/m2
06:30 12.9 °C 11.5 °C 1008.7 hPa West 3.2 km/h 19.3 km/h 91 % 0.0 mm 0 W/m2
06:35 13.1 °C 11.6 °C 1008.7 hPa West 4.8 km/h 19.3 km/h 91 % 0.0 mm 0 W/m2
06:40 13.1 °C 11.7 °C 1008.7 hPa WNW 4.8 km/h 14.5 km/h 91 % 0.0 mm 5 W/m2
06:45 13.1 °C 11.6 °C 1008.7 hPa SW 8.0 km/h 14.5 km/h 91 % 0.0 mm 11 W/m2
06:50 12.9 °C 11.5 °C 1009.0 hPa WSW 6.4 km/h 14.5 km/h 91 % 0.0 mm 14 W/m2
06:55 12.9 °C 11.5 °C 1009.0 hPa WSW 9.7 km/h 16.1 km/h 91 % 0.0 mm 21 W/m2
07:00 12.9 °C 11.5 °C 1009.0 hPa WNW 6.4 km/h 16.1 km/h 91 % 0.0 mm 30 W/m2
07:05 12.9 °C 11.5 °C 1009.0 hPa West 8.0 km/h 17.7 km/h 91 % 0.0 mm 35 W/m2
07:10 13.0 °C 11.6 °C 1009.0 hPa West 14.5 km/h 17.7 km/h 91 % 0.0 mm 32 W/m2
07:15 13.1 °C 11.5 °C 1009.4 hPa WSW 12.9 km/h 16.1 km/h 90 % 0.0 mm 47 W/m2
07:20 13.1 °C 11.5 °C 1009.4 hPa West 8.0 km/h 17.7 km/h 90 % 0.0 mm 60 W/m2
07:25 13.2 °C 11.6 °C 1009.4 hPa WNW 1.6 km/h 17.7 km/h 90 % 0.0 mm 54 W/m2
07:30 13.3 °C 11.7 °C 1009.4 hPa West 1.6 km/h 17.7 km/h 90 % 0.0 mm 46 W/m2
07:35 13.4 °C 11.6 °C 1009.4 hPa West 9.7 km/h 20.9 km/h 89 % 0.0 mm 51 W/m2
07:40 13.4 °C 11.8 °C 1009.4 hPa WSW 8.0 km/h 20.9 km/h 90 % 0.0 mm 60 W/m2
07:45 13.5 °C 11.9 °C 1009.4 hPa WSW 11.3 km/h 17.7 km/h 90 % 0.0 mm 63 W/m2
07:50 13.5 °C 11.9 °C 1009.4 hPa SW 4.8 km/h 19.3 km/h 90 % 0.0 mm 77 W/m2
07:55 13.6 °C 11.9 °C 1009.4 hPa SW 9.7 km/h 19.3 km/h 90 % 0.0 mm 76 W/m2
08:00 13.6 °C 11.8 °C 1009.7 hPa SW 8.0 km/h 16.1 km/h 89 % 0.0 mm 76 W/m2
08:05 13.6 °C 11.8 °C 1009.7 hPa SW 11.3 km/h 16.1 km/h 89 % 0.0 mm 84 W/m2
08:10 13.7 °C 12.1 °C 1009.7 hPa Calm   14.5 km/h 90 % 0.0 mm 86 W/m2
08:15 13.7 °C 12.1 °C 1009.7 hPa Calm   12.9 km/h 90 % 0.0 mm 102 W/m2
08:20 13.8 °C 12.2 °C 1009.7 hPa SW 6.4 km/h 12.9 km/h 90 % 0.0 mm 113 W/m2
08:25 13.8 °C 12.2 °C 1009.7 hPa SSW 3.2 km/h 12.9 km/h 90 % 0.0 mm 83 W/m2
08:30 13.8 °C 12.2 °C 1010.0 hPa SW 4.8 km/h 12.9 km/h 90 % 0.0 mm 158 W/m2
08:35 14.0 °C 12.4 °C 1010.0 hPa SW 11.3 km/h 14.5 km/h 90 % 0.0 mm 162 W/m2
08:40 14.1 °C 12.5 °C 1010.0 hPa SW 9.7 km/h 14.5 km/h 90 % 0.0 mm 185 W/m2
08:45 14.3 °C 12.7 °C 1010.0 hPa WSW 4.8 km/h 11.3 km/h 90 % 0.0 mm 165 W/m2
08:50 14.3 °C 12.5 °C 1010.4 hPa WSW 4.8 km/h 11.3 km/h 89 % 0.0 mm 88 W/m2
08:55 14.2 °C 12.4 °C 1010.4 hPa West 1.6 km/h 16.1 km/h 89 % 0.0 mm 100 W/m2
09:00 14.1 °C 12.3 °C 1010.4 hPa WSW 8.0 km/h 16.1 km/h 89 % 0.0 mm 118 W/m2
09:05 14.1 °C 12.4 °C 1010.4 hPa SW 4.8 km/h 16.1 km/h 90 % 0.0 mm 121 W/m2
09:10 14.1 °C 12.4 °C 1010.7 hPa WSW 3.2 km/h 11.3 km/h 90 % 0.0 mm 121 W/m2
09:15 14.1 °C 12.5 °C 1010.7 hPa SW 3.2 km/h 11.3 km/h 90 % 0.0 mm 116 W/m2
09:20 14.2 °C 12.5 °C 1010.7 hPa SSW 3.2 km/h 11.3 km/h 90 % 0.0 mm 128 W/m2
09:25 14.2 °C 12.6 °C 1010.7 hPa West 3.2 km/h 14.5 km/h 90 % 0.0 mm 178 W/m2
09:30 14.3 °C 12.7 °C 1010.7 hPa WSW 3.2 km/h 20.9 km/h 90 % 0.0 mm 234 W/m2
09:35 14.5 °C 12.9 °C 1011.1 hPa SSW 6.4 km/h 20.9 km/h 90 % 0.0 mm 243 W/m2
09:40 14.6 °C 13.0 °C 1010.7 hPa SSW 11.3 km/h 16.1 km/h 90 % 0.0 mm 221 W/m2
09:45 14.6 °C 12.8 °C 1011.1 hPa WSW 1.6 km/h 14.5 km/h 89 % 0.0 mm 202 W/m2
09:50 14.7 °C 13.1 °C 1011.1 hPa SW 6.4 km/h 14.5 km/h 90 % 0.0 mm 288 W/m2
09:55 14.9 °C 13.1 °C 1011.1 hPa SSW 9.7 km/h 14.5 km/h 89 % 0.0 mm 276 W/m2
10:00 14.9 °C 13.1 °C 1011.1 hPa SW 1.6 km/h 14.5 km/h 89 % 0.0 mm 264 W/m2
10:05 15.1 °C 13.3 °C 1011.1 hPa WSW 8.0 km/h 11.3 km/h 89 % 0.0 mm 246 W/m2
10:10 15.0 °C 12.9 °C 1011.1 hPa SSW 9.7 km/h 16.1 km/h 87 % 0.0 mm 248 W/m2
10:15 14.9 °C 12.9 °C 1011.1 hPa SSW 6.4 km/h 16.1 km/h 88 % 0.0 mm 313 W/m2
10:20 15.1 °C 12.9 °C 1011.4 hPa SSW 9.7 km/h 16.1 km/h 87 % 0.0 mm 355 W/m2
10:25 15.1 °C 13.1 °C 1011.4 hPa WSW 6.4 km/h 20.9 km/h 88 % 0.0 mm 380 W/m2
10:30 15.3 °C 13.3 °C 1011.4 hPa SW 16.1 km/h 20.9 km/h 88 % 0.0 mm 352 W/m2
10:35 15.2 °C 12.9 °C 1011.4 hPa SW 9.7 km/h 16.1 km/h 86 % 0.0 mm 237 W/m2
10:40 15.3 °C 13.2 °C 1011.4 hPa South 9.7 km/h 16.1 km/h 87 % 0.0 mm 301 W/m2
10:45 15.5 °C 13.2 °C 1011.7 hPa SW 11.3 km/h 16.1 km/h 86 % 0.0 mm 304 W/m2
10:50 15.4 °C 13.1 °C 1011.7 hPa SSW 11.3 km/h 17.7 km/h 86 % 0.0 mm 290 W/m2
10:55 15.8 °C 13.4 °C 1011.7 hPa WSW 6.4 km/h 20.9 km/h 86 % 0.0 mm 367 W/m2
11:00 16.0 °C 13.5 °C 1011.7 hPa WSW 11.3 km/h 20.9 km/h 85 % 0.0 mm 299 W/m2
11:05 15.8 °C 13.3 °C 1011.7 hPa WSW 9.7 km/h 20.9 km/h 85 % 0.0 mm 357 W/m2
11:10 15.8 °C 13.4 °C 1011.7 hPa SW 9.7 km/h 17.7 km/h 86 % 0.0 mm 434 W/m2
11:15 15.9 °C 13.4 °C 1011.7 hPa WSW 6.4 km/h 22.5 km/h 85 % 0.0 mm 868 W/m2
11:20 16.4 °C 13.9 °C 1012.1 hPa SW 12.9 km/h 24.1 km/h 85 % 0.0 mm 830 W/m2
11:25 16.5 °C 13.6 °C 1012.1 hPa SSW 8.0 km/h 24.1 km/h 83 % 0.0 mm 761 W/m2
11:30 16.3 °C 13.6 °C 1012.1 hPa SW 6.4 km/h 22.5 km/h 84 % 0.0 mm 759 W/m2
11:35 16.2 °C 13.6 °C 1012.1 hPa West 3.2 km/h 22.5 km/h 85 % 0.0 mm 320 W/m2
11:40 16.1 °C 13.4 °C 1012.1 hPa SSW 12.9 km/h 22.5 km/h 84 % 0.0 mm 527 W/m2
11:45 16.2 °C 13.7 °C 1012.1 hPa SSW 12.9 km/h 24.1 km/h 85 % 0.0 mm 766 W/m2
11:50 16.2 °C 13.5 °C 1012.1 hPa West 12.9 km/h 24.1 km/h 84 % 0.0 mm 786 W/m2
11:55 16.3 °C 13.6 °C 1012.4 hPa SW 8.0 km/h 22.5 km/h 84 % 0.0 mm 796 W/m2
12:00 16.8 °C 14.1 °C 1012.4 hPa SSW 16.1 km/h 20.9 km/h 84 % 0.0 mm 807 W/m2
12:05 17.0 °C 13.9 °C 1012.4 hPa SSW 8.0 km/h 19.3 km/h 82 % 0.0 mm 810 W/m2
12:10 16.7 °C 13.6 °C 1012.4 hPa SSW 9.7 km/h 27.4 km/h 82 % 0.0 mm 814 W/m2
12:15 16.5 °C 13.4 °C 1012.4 hPa SSW 14.5 km/h 27.4 km/h 82 % 0.0 mm 824 W/m2
12:20 16.9 °C 14.2 °C 1012.4 hPa WSW 8.0 km/h 22.5 km/h 84 % 0.0 mm 824 W/m2
12:25 16.8 °C 13.7 °C 1012.4 hPa SW 4.8 km/h 19.3 km/h 82 % 0.0 mm 833 W/m2
12:30 17.1 °C 14.1 °C 1012.4 hPa WSW 6.4 km/h 22.5 km/h 83 % 0.0 mm 844 W/m2
12:35 16.9 °C 13.8 °C 1012.8 hPa SSW 6.4 km/h 22.5 km/h 82 % 0.0 mm 851 W/m2
12:40 16.9 °C 13.5 °C 1012.8 hPa SW 11.3 km/h 20.9 km/h 80 % 0.0 mm 860 W/m2
12:45 17.2 °C 13.9 °C 1012.8 hPa WSW 12.9 km/h 19.3 km/h 81 % 0.0 mm 882 W/m2
12:50 17.6 °C 14.1 °C 1012.8 hPa WSW 22.5 km/h 22.5 km/h 80 % 0.0 mm 865 W/m2
12:55 17.2 °C 13.7 °C 1012.8 hPa WNW 8.0 km/h 25.7 km/h 80 % 0.0 mm 865 W/m2
13:05 16.9 °C 13.4 °C 1012.8 hPa SW 16.1 km/h 27.4 km/h 80 % 0.0 mm 875 W/m2
13:10 17.3 °C 14.2 °C 1012.8 hPa West 6.4 km/h 27.4 km/h 82 % 0.0 mm 882 W/m2
13:15 17.2 °C 13.9 °C 1012.8 hPa SSW 14.5 km/h 20.9 km/h 81 % 0.0 mm 879 W/m2
13:20 17.3 °C 13.8 °C 1013.1 hPa WSW 9.7 km/h 19.3 km/h 80 % 0.0 mm 884 W/m2
13:25 17.5 °C 14.2 °C 1013.1 hPa West 8.0 km/h 19.3 km/h 81 % 0.0 mm 886 W/m2
13:30 17.2 °C 13.7 °C 1013.1 hPa West 22.5 km/h 25.7 km/h 80 % 0.0 mm 888 W/m2
13:35 17.0 °C 13.7 °C 1013.1 hPa WSW 14.5 km/h 25.7 km/h 81 % 0.0 mm 891 W/m2
13:40 17.3 °C 13.8 °C 1013.1 hPa WSW 17.7 km/h 25.7 km/h 80 % 0.0 mm 902 W/m2
13:45 17.1 °C 14.0 °C 1013.1 hPa WSW 9.7 km/h 25.7 km/h 82 % 0.0 mm 907 W/m2
13:50 16.9 °C 13.8 °C 1013.1 hPa SW 1.6 km/h 25.7 km/h 82 % 0.0 mm 898 W/m2
13:55 17.4 °C 14.1 °C 1013.1 hPa WSW 14.5 km/h 25.7 km/h 81 % 0.0 mm 900 W/m2
14:00 17.1 °C 13.8 °C 1013.1 hPa WSW 19.3 km/h 24.1 km/h 81 % 0.0 mm 944 W/m2
14:05 17.0 °C 13.9 °C 1013.1 hPa WSW 12.9 km/h 24.1 km/h 82 % 0.0 mm 946 W/m2
14:10 17.2 °C 14.3 °C 1013.1 hPa WSW 22.5 km/h 24.1 km/h 83 % 0.0 mm 914 W/m2
14:15 17.0 °C 13.7 °C 1013.4 hPa WSW 11.3 km/h 24.1 km/h 81 % 0.0 mm 1005 W/m2
14:20 17.2 °C 13.9 °C 1013.4 hPa West 4.8 km/h 24.1 km/h 81 % 0.0 mm 942 W/m2
14:25 17.7 °C 14.4 °C 1013.4 hPa SW 6.4 km/h 22.5 km/h 81 % 0.0 mm 932 W/m2
14:30 17.3 °C 13.6 °C 1013.4 hPa West 12.9 km/h 25.7 km/h 79 % 0.0 mm 911 W/m2
14:35 17.3 °C 14.0 °C 1013.4 hPa WSW 4.8 km/h 25.7 km/h 81 % 0.0 mm 844 W/m2
14:40 17.3 °C 13.8 °C 1013.4 hPa West 8.0 km/h 22.5 km/h 80 % 0.0 mm 911 W/m2
14:45 16.9 °C 13.5 °C 1013.4 hPa SW 11.3 km/h 20.9 km/h 80 % 0.0 mm 896 W/m2
14:50 17.0 °C 13.5 °C 1013.4 hPa West 8.0 km/h 20.9 km/h 80 % 0.0 mm 879 W/m2
14:55 17.3 °C 14.2 °C 1013.4 hPa WNW 9.7 km/h 20.9 km/h 82 % 0.0 mm 879 W/m2
15:00 17.7 °C 13.8 °C 1013.4 hPa West 12.9 km/h 16.1 km/h 78 % 0.0 mm 884 W/m2
15:05 17.5 °C 14.0 °C 1013.4 hPa South 3.2 km/h 24.1 km/h 80 % 0.0 mm 860 W/m2
15:10 17.5 °C 13.6 °C 1013.4 hPa SSW 6.4 km/h 24.1 km/h 78 % 0.0 mm 881 W/m2
15:15 17.4 °C 13.9 °C 1013.4 hPa West 4.8 km/h 19.3 km/h 80 % 0.0 mm 977 W/m2
15:20 17.1 °C 13.6 °C 1013.8 hPa WNW 12.9 km/h 19.3 km/h 80 % 0.0 mm 881 W/m2
15:25 17.3 °C 13.8 °C 1013.8 hPa SSW 4.8 km/h 20.9 km/h 80 % 0.0 mm 867 W/m2
15:30 17.1 °C 13.6 °C 1013.8 hPa WSW 12.9 km/h 27.4 km/h 80 % 0.0 mm 854 W/m2
15:35 17.0 °C 13.7 °C 1013.8 hPa West 4.8 km/h 27.4 km/h 81 % 0.0 mm 856 W/m2
15:40 16.9 °C 13.3 °C 1013.8 hPa SSW 12.9 km/h 24.1 km/h 79 % 0.0 mm 847 W/m2
15:45 17.0 °C 13.9 °C 1013.8 hPa West 9.7 km/h 25.7 km/h 82 % 0.0 mm 826 W/m2
15:50 17.2 °C 13.7 °C 1014.1 hPa WSW 3.2 km/h 25.7 km/h 80 % 0.0 mm 817 W/m2
15:55 17.3 °C 13.5 °C 1014.1 hPa West 14.5 km/h 25.7 km/h 78 % 0.0 mm 810 W/m2
16:00 17.1 °C 13.8 °C 1013.8 hPa Calm   22.5 km/h 81 % 0.0 mm 791 W/m2
16:05 17.3 °C 13.8 °C 1014.1 hPa WSW 16.1 km/h 25.7 km/h 80 % 0.0 mm 782 W/m2
16:10 17.2 °C 13.4 °C 1014.1 hPa West 19.3 km/h 25.7 km/h 78 % 0.0 mm 779 W/m2
16:15 16.8 °C 13.2 °C 1014.1 hPa WSW 12.9 km/h 25.7 km/h 79 % 0.0 mm 768 W/m2
16:20 17.0 °C 13.5 °C 1014.1 hPa West 17.7 km/h 29.0 km/h 80 % 0.0 mm 759 W/m2
16:25 17.0 °C 13.3 °C 1014.1 hPa SSW 3.2 km/h 29.0 km/h 79 % 0.0 mm 745 W/m2
16:30 17.2 °C 13.3 °C 1014.1 hPa West 11.3 km/h 29.0 km/h 78 % 0.0 mm 738 W/m2
16:35 17.2 °C 13.5 °C 1014.1 hPa SSW 9.7 km/h 29.0 km/h 79 % 0.0 mm 731 W/m2
16:40 17.2 °C 13.3 °C 1014.1 hPa WSW 19.3 km/h 27.4 km/h 78 % 0.0 mm 721 W/m2
16:45 16.9 °C 13.2 °C 1014.1 hPa SW 9.7 km/h 22.5 km/h 79 % 0.0 mm 707 W/m2
16:50 16.8 °C 13.0 °C 1014.1 hPa West 8.0 km/h 22.5 km/h 78 % 0.0 mm 698 W/m2
16:55 16.9 °C 13.1 °C 1014.1 hPa West 11.3 km/h 24.1 km/h 78 % 0.0 mm 686 W/m2
17:00 17.2 °C 13.7 °C 1014.1 hPa South 1.6 km/h 24.1 km/h 80 % 0.0 mm 675 W/m2
17:05 17.4 °C 13.1 °C 1014.1 hPa WSW 12.9 km/h 22.5 km/h 76 % 0.0 mm 663 W/m2
17:10 16.7 °C 13.1 °C 1014.1 hPa SSW 9.7 km/h 22.5 km/h 79 % 0.0 mm 654 W/m2
17:15 16.8 °C 13.4 °C 1014.1 hPa SW 11.3 km/h 19.3 km/h 80 % 0.0 mm 642 W/m2
17:20 16.8 °C 13.1 °C 1014.1 hPa SW 11.3 km/h 25.7 km/h 79 % 0.0 mm 631 W/m2
17:25 16.5 °C 13.0 °C 1014.1 hPa SW 11.3 km/h 25.7 km/h 80 % 0.0 mm 615 W/m2
17:30 16.7 °C 13.0 °C 1014.1 hPa SSW 8.0 km/h 20.9 km/h 79 % 0.0 mm 605 W/m2
17:35 16.7 °C 12.9 °C 1014.1 hPa West 6.4 km/h 24.1 km/h 78 % 0.0 mm 592 W/m2
17:40 16.3 °C 12.9 °C 1014.1 hPa WSW 12.9 km/h 25.7 km/h 80 % 0.0 mm 577 W/m2
17:45 16.4 °C 12.8 °C 1014.1 hPa West 12.9 km/h 25.7 km/h 79 % 0.0 mm 568 W/m2
17:50 16.4 °C 12.5 °C 1014.1 hPa SSW 9.7 km/h 20.9 km/h 78 % 0.0 mm 547 W/m2
17:55 16.3 °C 12.4 °C 1014.1 hPa WNW 11.3 km/h 25.7 km/h 78 % 0.0 mm 540 W/m2
18:00 16.6 °C 12.5 °C 1014.1 hPa SSW 12.9 km/h 25.7 km/h 77 % 0.0 mm 522 W/m2
18:05 16.4 °C 12.4 °C 1014.1 hPa SW 9.7 km/h 22.5 km/h 77 % 0.0 mm 555 W/m2
18:10 16.6 °C 12.7 °C 1014.1 hPa SW 12.9 km/h 22.5 km/h 78 % 0.0 mm 531 W/m2
18:15 16.5 °C 12.5 °C 1014.1 hPa WSW 9.7 km/h 22.5 km/h 77 % 0.0 mm 492 W/m2
18:20 16.3 °C 12.3 °C 1014.1 hPa West 8.0 km/h 27.4 km/h 77 % 0.0 mm 485 W/m2
18:25 16.6 °C 12.6 °C 1014.1 hPa South 20.9 km/h 27.4 km/h 77 % 0.0 mm 471 W/m2
18:30 16.8 °C 12.9 °C 1014.1 hPa SW 8.0 km/h 24.1 km/h 78 % 0.0 mm 461 W/m2
18:35 16.8 °C 13.0 °C 1014.1 hPa South 8.0 km/h 20.9 km/h 78 % 0.0 mm 443 W/m2
18:40 17.0 °C 12.5 °C 1014.1 hPa SSW 9.7 km/h 22.5 km/h 75 % 0.0 mm 441 W/m2
18:45 16.8 °C 12.4 °C 1014.1 hPa SSW 11.3 km/h 22.5 km/h 75 % 0.0 mm 420 W/m2
18:50 16.8 °C 12.6 °C 1014.1 hPa SW 6.4 km/h 20.9 km/h 76 % 0.0 mm 415 W/m2
18:55 16.6 °C 12.3 °C 1014.4 hPa WSW 14.5 km/h 25.7 km/h 76 % 0.0 mm 204 W/m2
19:00 16.3 °C 12.4 °C 1014.1 hPa SW 12.9 km/h 25.7 km/h 78 % 0.0 mm 244 W/m2
19:05 16.0 °C 12.2 °C 1014.4 hPa WNW 9.7 km/h 20.9 km/h 78 % 0.0 mm 250 W/m2
19:10 15.8 °C 12.2 °C 1014.4 hPa West 16.1 km/h 22.5 km/h 79 % 0.0 mm 288 W/m2
19:15 15.9 °C 12.7 °C 1014.1 hPa SW 9.7 km/h 22.5 km/h 81 % 0.0 mm 325 W/m2
19:25 16.1 °C 12.3 °C 1014.1 hPa WSW 16.1 km/h 19.3 km/h 78 % 0.0 mm 274 W/m2
19:30 16.2 °C 12.3 °C 1014.1 hPa SW 14.5 km/h 20.9 km/h 78 % 0.0 mm 258 W/m2
19:35 16.2 °C 11.9 °C 1014.4 hPa WSW 9.7 km/h 20.9 km/h 76 % 0.0 mm 246 W/m2
19:40 16.0 °C 12.0 °C 1014.4 hPa SW 11.3 km/h 25.7 km/h 77 % 0.0 mm 230 W/m2
19:45 16.0 °C 12.2 °C 1014.4 hPa SSW 11.3 km/h 25.7 km/h 78 % 0.0 mm 214 W/m2
19:50 16.0 °C 12.0 °C 1014.4 hPa SSW 8.0 km/h 19.3 km/h 77 % 0.0 mm 195 W/m2
19:55 15.9 °C 12.1 °C 1014.4 hPa SSW 14.5 km/h 19.3 km/h 78 % 0.0 mm 172 W/m2
20:00 15.8 °C 11.8 °C 1014.4 hPa SSW 19.3 km/h 24.1 km/h 77 % 0.0 mm 155 W/m2
20:05 15.7 °C 11.7 °C 1014.4 hPa South 4.8 km/h 24.1 km/h 77 % 0.0 mm 137 W/m2
20:10 15.7 °C 11.6 °C 1014.4 hPa SW 6.4 km/h 22.5 km/h 77 % 0.0 mm 65 W/m2
20:15 15.4 °C 11.6 °C 1014.4 hPa South 12.9 km/h 22.5 km/h 78 % 0.0 mm 51 W/m2
20:20 15.3 °C 11.9 °C 1014.4 hPa SSW 4.8 km/h 22.5 km/h 80 % 0.0 mm 58 W/m2
20:25 15.3 °C 11.8 °C 1014.4 hPa SSW 11.3 km/h 17.7 km/h 80 % 0.0 mm 56 W/m2
20:30 15.3 °C 12.0 °C 1014.4 hPa SSW 8.0 km/h 17.7 km/h 81 % 0.0 mm 39 W/m2
20:35 15.2 °C 12.2 °C 1014.8 hPa SSW 8.0 km/h 24.1 km/h 82 % 0.0 mm 28 W/m2
20:40 15.2 °C 12.1 °C 1014.8 hPa SSW 12.9 km/h 24.1 km/h 82 % 0.0 mm 35 W/m2
20:45 15.2 °C 12.1 °C 1014.8 hPa South 6.4 km/h 14.5 km/h 82 % 0.0 mm 39 W/m2
20:50 15.2 °C 12.3 °C 1014.8 hPa South 9.7 km/h 20.9 km/h 83 % 0.0 mm 33 W/m2
20:55 15.1 °C 12.2 °C 1014.8 hPa West 6.4 km/h 20.9 km/h 83 % 0.0 mm 16 W/m2
21:00 15.0 °C 12.3 °C 1014.8 hPa SSW 11.3 km/h 22.5 km/h 84 % 0.0 mm 11 W/m2
21:05 14.9 °C 12.3 °C 1014.8 hPa SSW 14.5 km/h 22.5 km/h 84 % 0.0 mm 9 W/m2
21:10 14.8 °C 12.3 °C 1014.8 hPa SSW 11.3 km/h 25.7 km/h 85 % 0.0 mm 7 W/m2
21:15 14.8 °C 12.3 °C 1014.8 hPa SSW 12.9 km/h 25.7 km/h 85 % 0.0 mm 7 W/m2
21:20 14.8 °C 12.3 °C 1015.1 hPa South 11.3 km/h 22.5 km/h 85 % 0.0 mm 7 W/m2
21:25 14.8 °C 12.5 °C 1015.1 hPa SSW 14.5 km/h 22.5 km/h 86 % 0.0 mm 0 W/m2
21:30 14.8 °C 12.5 °C 1015.1 hPa SSW 8.0 km/h 20.9 km/h 86 % 0.0 mm 0 W/m2
21:35 14.8 °C 12.5 °C 1015.1 hPa South 6.4 km/h 20.9 km/h 86 % 0.0 mm 0 W/m2
21:40 14.9 °C 12.6 °C 1015.1 hPa SW 6.4 km/h 20.9 km/h 86 % 0.0 mm 0 W/m2
21:45 14.8 °C 12.5 °C 1015.1 hPa South 6.4 km/h 22.5 km/h 86 % 0.0 mm 0 W/m2
21:50 14.8 °C 12.5 °C 1015.1 hPa South 11.3 km/h 22.5 km/h 86 % 0.0 mm 0 W/m2
22:00 14.8 °C 12.5 °C 1015.1 hPa South 9.7 km/h 20.9 km/h 86 % 0.0 mm 0 W/m2
22:05 14.8 °C 12.5 °C 1015.1 hPa South 6.4 km/h 20.9 km/h 86 % 0.0 mm 0 W/m2
22:10 14.8 °C 12.5 °C 1015.1 hPa SSE 17.7 km/h 20.9 km/h 86 % 0.0 mm 0 W/m2
22:15 14.8 °C 12.5 °C 1015.5 hPa SW 8.0 km/h 19.3 km/h 86 % 0.0 mm 0 W/m2
22:20 14.8 °C 12.5 °C 1015.5 hPa SW 9.7 km/h 20.9 km/h 86 % 0.0 mm 0 W/m2
22:25 14.8 °C 12.5 °C 1015.5 hPa SSW 11.3 km/h 20.9 km/h 86 % 0.0 mm 0 W/m2
22:30 14.9 °C 12.6 °C 1015.5 hPa South 12.9 km/h 16.1 km/h 86 % 0.0 mm 0 W/m2
22:35 14.9 °C 12.6 °C 1015.8 hPa South 9.7 km/h 22.5 km/h 86 % 0.0 mm 0 W/m2
22:40 14.9 °C 12.7 °C 1015.8 hPa SW 11.3 km/h 22.5 km/h 87 % 0.0 mm 0 W/m2
22:45 14.8 °C 12.7 °C 1015.8 hPa SSW 19.3 km/h 19.3 km/h 87 % 0.0 mm 0 W/m2
22:50 14.8 °C 12.5 °C 1015.8 hPa South 8.0 km/h 25.7 km/h 86 % 0.0 mm 0 W/m2
22:55 14.8 °C 12.5 °C 1015.8 hPa SSW 14.5 km/h 25.7 km/h 86 % 0.0 mm 0 W/m2
23:00 14.8 °C 12.5 °C 1015.8 hPa South 20.9 km/h 22.5 km/h 86 % 0.0 mm 0 W/m2
23:05 14.8 °C 12.5 °C 1015.8 hPa South 11.3 km/h 22.5 km/h 86 % 0.0 mm 0 W/m2
23:10 14.9 °C 12.6 °C 1015.8 hPa SW 9.7 km/h 22.5 km/h 86 % 0.0 mm 0 W/m2
23:15 14.8 °C 12.5 °C 1015.8 hPa South 4.8 km/h 17.7 km/h 86 % 0.0 mm 0 W/m2
23:20 14.8 °C 12.5 °C 1015.8 hPa SSE 11.3 km/h 19.3 km/h 86 % 0.0 mm 0 W/m2
23:25 14.8 °C 12.3 °C 1015.8 hPa SSW 9.7 km/h 20.9 km/h 85 % 0.0 mm 0 W/m2
23:30 14.8 °C 12.3 °C 1015.8 hPa South 4.8 km/h 20.9 km/h 85 % 0.0 mm 0 W/m2
23:35 14.8 °C 12.3 °C 1015.8 hPa SSW 11.3 km/h 19.3 km/h 85 % 0.0 mm 0 W/m2
23:40 14.8 °C 12.1 °C 1015.8 hPa SSW 9.7 km/h 19.3 km/h 84 % 0.0 mm 0 W/m2
23:45 14.8 °C 12.2 °C 1015.8 hPa South 9.7 km/h 20.9 km/h 84 % 0.0 mm 0 W/m2
23:50 14.8 °C 12.2 °C 1015.8 hPa South 9.7 km/h 24.1 km/h 84 % 0.0 mm 0 W/m2
23:55 14.9 °C 12.2 °C 1015.8 hPa SSE 8.0 km/h 24.1 km/h 84 % 0.0 mm 0 W/m2
Avec l'autorisation de Weather Underground - 1.75 mb